| time (UTC) | temp F | wind direction | speed MPH | gust MPH | rain 1hr in | rain 24hr in | rain mn in | humidity % | barometer mb |
| 20260502182516 | 63 | 287 | 2.0 | 5.0 | 0.00 | 0.00 | 0.00 | 68 | 1016.3 |
| 20260502182013 | 63 | 332 | 1.0 | 5.0 | 0.00 | 0.00 | 0.00 | 68 | 1016.3 |
| 20260502181532 | 63 | 350 | 2.0 | 5.0 | 0.00 | 0.00 | 0.00 | 69 | 1016.5 |
| 20260502181019 | 62 | 320 | 1.0 | 5.0 | 0.00 | 0.00 | 0.00 | 69 | 1016.5 |
| 20260502180516 | 62 | 260 | 1.0 | 5.0 | 0.00 | 0.00 | 0.00 | 70 | 1016.5 |
| 20260502170514 | 55 | 281 | 0.0 | 3.0 | 0.00 | 0.00 | 0.00 | 80 | 1016.9 |
| 20260502164016 | 54 | 213 | 0.0 | 4.0 | 0.00 | 0.00 | 0.00 | 80 | 1016.7 |
| 20260502163515 | 54 | 319 | 0.0 | 3.0 | 0.00 | 0.00 | 0.00 | 81 | 1016.7 |
| 20260502163040 | 54 | 329 | 0.0 | 2.0 | 0.00 | 0.00 | 0.00 | 82 | 1016.7 |
| 20260502162516 | 53 | 165 | 1.0 | 2.0 | 0.00 | 0.00 | 0.00 | 82 | 1016.7 |
| 20260502162024 | 53 | 303 | 0.0 | 2.0 | 0.00 | 0.00 | 0.00 | 83 | 1016.7 |
| 20260502161537 | 53 | 319 | 1.0 | 2.0 | 0.00 | 0.00 | 0.00 | 83 | 1016.7 |
| 20260502161016 | 53 | 257 | 0.0 | 2.0 | 0.00 | 0.00 | 0.00 | 84 | 1016.7 |
| 20260502160519 | 53 | 0 | 0.0 | 2.0 | 0.00 | 0.00 | 0.00 | 84 | 1016.7 |
| 20260502152016 | 51 | 0 | 0.0 | 0.0 | 0.00 | 0.00 | 0.00 | 88 | 1016.9 |
| 20260502151531 | 50 | 0 | 0.0 | 0.0 | 0.00 | 0.00 | 0.00 | 88 | 1016.8 |
| 20260502151014 | 50 | 0 | 0.0 | 0.0 | 0.00 | 0.00 | 0.00 | 89 | 1016.9 |
| 20260502150514 | 50 | 0 | 0.0 | 0.0 | 0.00 | 0.00 | 0.00 | 89 | 1016.9 |
| 20260502130513 | 46 | 0 | 0.0 | 0.0 | 0.00 | 0.00 | 0.00 | 89 | 1016.6 |
| 20260502123515 | 46 | 0 | 0.0 | 0.0 | 0.00 | 0.00 | 0.00 | 88 | 1016.7 |
| 20260502123032 | 46 | 0 | 0.0 | 0.0 | 0.00 | 0.00 | 0.00 | 88 | 1016.8 |
| 20260502122513 | 46 | 0 | 0.0 | 0.0 | 0.00 | 0.00 | 0.00 | 88 | 1016.9 |
| 20260502122014 | 46 | 0 | 0.0 | 0.0 | 0.00 | 0.00 | 0.00 | 88 | 1016.8 |
| 20260502121532 | 46 | 0 | 0.0 | 0.0 | 0.00 | 0.00 | 0.00 | 88 | 1016.8 |
| 20260502121014 | 46 | 0 | 0.0 | 0.0 | 0.00 | 0.00 | 0.00 | 88 | 1017.0 |
| 20260502120511 | 46 | 0 | 0.0 | 0.0 | 0.00 | 0.00 | 0.00 | 88 | 1017.0 |
| 20260502115514 | 46 | 0 | 0.0 | 0.0 | 0.00 | 0.00 | 0.00 | 88 | 1016.9 |
| 20260502115013 | 46 | 0 | 0.0 | 0.0 | 0.00 | 0.00 | 0.00 | 88 | 1016.9 |
| 20260502114533 | 46 | 0 | 0.0 | 0.0 | 0.00 | 0.00 | 0.00 | 88 | 1017.1 |
| 20260502114017 | 46 | 0 | 0.0 | 0.0 | 0.00 | 0.00 | 0.00 | 88 | 1016.9 |
| 20260502113514 | 46 | 0 | 0.0 | 0.0 | 0.00 | 0.00 | 0.00 | 87 | 1017.0 |
| 20260502113035 | 46 | 0 | 0.0 | 0.0 | 0.00 | 0.00 | 0.00 | 87 | 1017.0 |
| 20260502112513 | 47 | 0 | 0.0 | 0.0 | 0.00 | 0.00 | 0.00 | 87 | 1017.1 |
| 20260502112015 | 47 | 0 | 0.0 | 0.0 | 0.00 | 0.00 | 0.00 | 87 | 1017.0 |
| 20260502111539 | 47 | 0 | 0.0 | 0.0 | 0.00 | 0.00 | 0.00 | 87 | 1016.8 |
| 20260502111013 | 47 | 0 | 0.0 | 0.0 | 0.00 | 0.00 | 0.00 | 87 | 1016.8 |
| 20260502110514 | 47 | 0 | 0.0 | 0.0 | 0.00 | 0.00 | 0.00 | 87 | 1016.7 |
| 20260502110033 | 47 | 0 | 0.0 | 0.0 | 0.00 | 0.00 | 0.00 | 87 | 1016.5 |
| 20260502105515 | 47 | 0 | 0.0 | 0.0 | 0.00 | 0.00 | 0.00 | 87 | 1016.6 |
| 20260502105012 | 47 | 0 | 0.0 | 0.0 | 0.00 | 0.00 | 0.00 | 87 | 1016.7 |
| 20260502104538 | 47 | 0 | 0.0 | 0.0 | 0.00 | 0.00 | 0.00 | 87 | 1016.9 |
| 20260502104013 | 47 | 0 | 0.0 | 0.0 | 0.00 | 0.00 | 0.00 | 87 | 1017.0 |
| 20260502103514 | 47 | 0 | 0.0 | 0.0 | 0.00 | 0.00 | 0.00 | 87 | 1017.4 |
| 20260502103032 | 47 | 0 | 0.0 | 0.0 | 0.00 | 0.00 | 0.00 | 87 | 1017.5 |
| 20260502102514 | 47 | 0 | 0.0 | 0.0 | 0.00 | 0.00 | 0.00 | 87 | 1017.6 |
| 20260502102016 | 47 | 0 | 0.0 | 0.0 | 0.00 | 0.00 | 0.00 | 86 | 1017.8 |
| 20260502101538 | 47 | 0 | 0.0 | 0.0 | 0.00 | 0.00 | 0.00 | 86 | 1017.8 |
| 20260502101013 | 47 | 0 | 0.0 | 0.0 | 0.00 | 0.00 | 0.00 | 86 | 1017.8 |
| 20260502100513 | 47 | 0 | 0.0 | 0.0 | 0.00 | 0.00 | 0.00 | 86 | 1017.7 |
| 20260502091530 | 48 | 0 | 0.0 | 0.0 | 0.00 | 0.00 | 0.00 | 85 | 1017.0 |
| 20260502091015 | 48 | 0 | 0.0 | 0.0 | 0.00 | 0.00 | 0.00 | 85 | 1016.8 |
| 20260502090510 | 48 | 0 | 0.0 | 0.0 | 0.00 | 0.00 | 0.00 | 85 | 1016.8 |
| 20260502071533 | 50 | 0 | 0.0 | 0.0 | 0.00 | 0.00 | 0.00 | 82 | 1017.0 |
| 20260502071012 | 50 | 0 | 0.0 | 0.0 | 0.00 | 0.00 | 0.00 | 81 | 1017.0 |
| 20260502070514 | 50 | 0 | 0.0 | 0.0 | 0.00 | 0.00 | 0.00 | 81 | 1016.8 |
| 20260502070041 | 51 | 0 | 0.0 | 0.0 | 0.00 | 0.00 | 0.00 | 81 | 1016.8 |
| 20260502065514 | 51 | 0 | 0.0 | 0.0 | 0.00 | 0.00 | 0.00 | 81 | 1016.8 |
| 20260502065013 | 51 | 0 | 0.0 | 0.0 | 0.00 | 0.00 | 0.00 | 81 | 1016.7 |
| 20260502064531 | 51 | 0 | 0.0 | 0.0 | 0.00 | 0.00 | 0.00 | 80 | 1016.7 |
| 20260502064013 | 51 | 0 | 0.0 | 0.0 | 0.00 | 0.00 | 0.00 | 80 | 1016.8 |
| 20260502063510 | 51 | 0 | 0.0 | 0.0 | 0.00 | 0.00 | 0.00 | 80 | 1016.6 |
| 20260502063035 | 52 | 0 | 0.0 | 0.0 | 0.00 | 0.00 | 0.00 | 79 | 1016.7 |
| 20260502062511 | 52 | 0 | 0.0 | 0.0 | 0.00 | 0.00 | 0.00 | 79 | 1016.7 |
| 20260502062040 | 52 | 0 | 0.0 | 0.0 | 0.00 | 0.00 | 0.00 | 79 | 1016.7 |
| 20260502061533 | 52 | 0 | 0.0 | 0.0 | 0.00 | 0.00 | 0.00 | 79 | 1016.8 |
| 20260502061014 | 52 | 0 | 0.0 | 0.0 | 0.00 | 0.00 | 0.00 | 78 | 1016.7 |
| 20260502060511 | 52 | 0 | 0.0 | 0.0 | 0.00 | 0.00 | 0.00 | 78 | 1016.8 |
| 20260502060032 | 53 | 0 | 0.0 | 0.0 | 0.00 | 0.00 | 0.00 | 78 | 1016.8 |
| 20260502055515 | 53 | 0 | 0.0 | 0.0 | 0.00 | 0.00 | 0.00 | 77 | 1016.8 |
| 20260502055014 | 53 | 0 | 0.0 | 0.0 | 0.00 | 0.00 | 0.00 | 77 | 1016.8 |
| 20260502054532 | 53 | 0 | 0.0 | 0.0 | 0.00 | 0.00 | 0.00 | 77 | 1016.7 |
| 20260502054010 | 54 | 0 | 0.0 | 0.0 | 0.00 | 0.00 | 0.00 | 76 | 1016.8 |
| 20260502053514 | 54 | 0 | 0.0 | 0.0 | 0.00 | 0.00 | 0.00 | 76 | 1016.9 |
| 20260502053032 | 54 | 0 | 0.0 | 0.0 | 0.00 | 0.00 | 0.00 | 75 | 1016.7 |
| 20260502052517 | 54 | 0 | 0.0 | 0.0 | 0.00 | 0.00 | 0.00 | 75 | 1016.8 |
| 20260502052011 | 55 | 0 | 0.0 | 0.0 | 0.00 | 0.00 | 0.00 | 75 | 1016.8 |
| 20260502051534 | 55 | 0 | 0.0 | 0.0 | 0.00 | 0.00 | 0.00 | 74 | 1016.8 |
| 20260502051011 | 55 | 0 | 0.0 | 0.0 | 0.00 | 0.00 | 0.00 | 74 | 1016.8 |
| 20260502050510 | 55 | 0 | 0.0 | 0.0 | 0.00 | 0.00 | 0.00 | 73 | 1016.7 |
| 20260502050033 | 56 | 0 | 0.0 | 0.0 | 0.00 | 0.00 | 0.00 | 73 | 1016.7 |
| 20260502045515 | 56 | 0 | 0.0 | 0.0 | 0.00 | 0.00 | 0.00 | 73 | 1016.7 |
| 20260502045014 | 56 | 0 | 0.0 | 0.0 | 0.00 | 0.00 | 0.00 | 72 | 1016.7 |
| 20260502044532 | 57 | 0 | 0.0 | 0.0 | 0.00 | 0.00 | 0.00 | 72 | 1016.7 |
| 20260502044013 | 57 | 0 | 0.0 | 0.0 | 0.00 | 0.00 | 0.00 | 72 | 1016.6 |
| 20260502043512 | 57 | 0 | 0.0 | 0.0 | 0.00 | 0.00 | 0.00 | 72 | 1016.5 |
| 20260502043030 | 57 | 0 | 0.0 | 0.0 | 0.00 | 0.00 | 0.00 | 72 | 1016.3 |
| 20260502042515 | 58 | 0 | 0.0 | 0.0 | 0.00 | 0.00 | 0.00 | 71 | 1016.3 |
| 20260502042015 | 58 | 0 | 0.0 | 0.0 | 0.00 | 0.00 | 0.00 | 71 | 1016.2 |
| 20260502041540 | 58 | 0 | 0.0 | 0.0 | 0.00 | 0.00 | 0.00 | 70 | 1016.1 |
| 20260502041011 | 59 | 0 | 0.0 | 0.0 | 0.00 | 0.00 | 0.00 | 70 | 1016.0 |
| 20260502040512 | 59 | 0 | 0.0 | 0.0 | 0.00 | 0.00 | 0.00 | 70 | 1015.9 |
| 20260502040041 | 59 | 0 | 0.0 | 0.0 | 0.00 | 0.00 | 0.00 | 69 | 1015.7 |
| 20260502035514 | 60 | 0 | 0.0 | 0.0 | 0.00 | 0.00 | 0.00 | 68 | 1015.8 |
| 20260502035019 | 60 | 0 | 0.0 | 0.0 | 0.00 | 0.00 | 0.00 | 68 | 1015.6 |
| 20260502034532 | 60 | 0 | 0.0 | 0.0 | 0.00 | 0.00 | 0.00 | 67 | 1015.5 |
| 20260502034014 | 61 | 0 | 0.0 | 0.0 | 0.00 | 0.00 | 0.00 | 67 | 1015.4 |
| 20260502033513 | 61 | 0 | 0.0 | 0.0 | 0.00 | 0.00 | 0.00 | 66 | 1015.3 |
| 20260502033031 | 62 | 0 | 0.0 | 0.0 | 0.00 | 0.00 | 0.00 | 66 | 1015.4 |
| 20260502032513 | 62 | 0 | 0.0 | 0.0 | 0.00 | 0.00 | 0.00 | 65 | 1015.2 |
| 20260502032012 | 63 | 0 | 0.0 | 0.0 | 0.00 | 0.00 | 0.00 | 65 | 1015.1 |
| 20260502031537 | 63 | 0 | 0.0 | 0.0 | 0.00 | 0.00 | 0.00 | 65 | 1015.1 |
| 20260502031010 | 63 | 0 | 0.0 | 0.0 | 0.00 | 0.00 | 0.00 | 65 | 1015.0 |
| 20260502030515 | 64 | 0 | 0.0 | 0.0 | 0.00 | 0.00 | 0.00 | 65 | 1014.9 |
| 20260502030044 | 64 | 0 | 0.0 | 0.0 | 0.00 | 0.00 | 0.00 | 65 | 1014.7 |
| 20260502025514 | 65 | 0 | 0.0 | 0.0 | 0.00 | 0.00 | 0.00 | 65 | 1014.7 |
| 20260502025013 | 65 | 0 | 0.0 | 2.0 | 0.00 | 0.00 | 0.00 | 64 | 1014.5 |
| 20260502024541 | 65 | 0 | 0.0 | 2.0 | 0.00 | 0.00 | 0.00 | 63 | 1014.5 |
| 20260502024015 | 66 | 0 | 0.0 | 0.0 | 0.00 | 0.00 | 0.00 | 63 | 1014.3 |
| 20260502023514 | 66 | 0 | 0.0 | 0.0 | 0.00 | 0.00 | 0.00 | 63 | 1014.2 |
| 20260502023043 | 66 | 0 | 0.0 | 1.0 | 0.00 | 0.00 | 0.00 | 63 | 1014.1 |
| 20260502022514 | 67 | 0 | 0.0 | 2.0 | 0.00 | 0.00 | 0.00 | 63 | 1014.1 |
| 20260502022014 | 67 | 0 | 0.0 | 2.0 | 0.00 | 0.00 | 0.00 | 62 | 1014.1 |
| 20260502021540 | 67 | 0 | 0.0 | 3.0 | 0.00 | 0.00 | 0.00 | 61 | 1014.1 |
| 20260502021014 | 68 | 236 | 0.0 | 3.0 | 0.00 | 0.00 | 0.00 | 61 | 1014.0 |
| 20260502020515 | 68 | 213 | 0.0 | 3.0 | 0.00 | 0.00 | 0.00 | 61 | 1014.0 |
| 20260502020030 | 68 | 236 | 0.0 | 3.0 | 0.00 | 0.00 | 0.00 | 61 | 1014.0 |
| 20260502015513 | 69 | 238 | 0.0 | 3.0 | 0.00 | 0.00 | 0.00 | 60 | 1014.0 |
| 20260502015014 | 69 | 216 | 0.0 | 3.0 | 0.00 | 0.00 | 0.00 | 59 | 1013.9 |
| 20260502014538 | 69 | 225 | 0.0 | 3.0 | 0.00 | 0.00 | 0.00 | 59 | 1014.1 |
| 20260502014017 | 70 | 219 | 0.0 | 2.0 | 0.00 | 0.00 | 0.00 | 59 | 1014.0 |
| 20260502013513 | 70 | 0 | 0.0 | 2.0 | 0.00 | 0.00 | 0.00 | 59 | 1014.1 |
| 20260502013030 | 71 | 0 | 0.0 | 3.0 | 0.00 | 0.00 | 0.00 | 58 | 1014.1 |
| 20260502012512 | 71 | 333 | 1.0 | 3.0 | 0.00 | 0.00 | 0.00 | 57 | 1014.1 |
| 20260502012018 | 72 | 149 | 0.0 | 3.0 | 0.00 | 0.00 | 0.00 | 57 | 1014.1 |
| 20260502011534 | 72 | 0 | 1.0 | 3.0 | 0.00 | 0.00 | 0.00 | 57 | 1014.0 |
| 20260502011014 | 72 | 175 | 1.0 | 6.0 | 0.00 | 0.00 | 0.00 | 56 | 1014.1 |
| 20260502010516 | 73 | 229 | 1.0 | 6.0 | 0.00 | 0.00 | 0.00 | 55 | 1014.1 |
| 20260502010032 | 74 | 23 | 1.0 | 3.0 | 0.00 | 0.00 | 0.00 | 54 | 1014.1 |
| 20260502005514 | 74 | 311 | 1.0 | 3.0 | 0.00 | 0.00 | 0.00 | 54 | 1014.0 |
| 20260502005015 | 75 | 0 | 1.0 | 3.0 | 0.00 | 0.00 | 0.00 | 53 | 1014.1 |
| 20260502004532 | 76 | 295 | 0.0 | 2.0 | 0.00 | 0.00 | 0.00 | 53 | 1014.1 |
| 20260502004020 | 76 | 5 | 1.0 | 3.0 | 0.00 | 0.00 | 0.00 | 54 | 1014.0 |
| 20260502003518 | 76 | 352 | 1.0 | 3.0 | 0.00 | 0.00 | 0.00 | 54 | 1014.0 |
| 20260502003032 | 77 | 273 | 2.0 | 3.0 | 0.00 | 0.00 | 0.00 | 51 | 1013.9 |
| 20260502002513 | 77 | 323 | 1.0 | 3.0 | 0.00 | 0.00 | 0.00 | 52 | 1014.0 |
| 20260502002013 | 77 | 0 | 0.0 | 3.0 | 0.00 | 0.00 | 0.00 | 53 | 1013.9 |
| 20260502001530 | 76 | 323 | 1.0 | 4.0 | 0.00 | 0.00 | 0.00 | 52 | 1013.9 |
| 20260502001011 | 77 | 69 | 1.0 | 4.0 | 0.00 | 0.00 | 0.00 | 53 | 1014.0 |
| 20260502000515 | 76 | 303 | 1.0 | 3.0 | 0.00 | 0.00 | 0.00 | 52 | 1014.0 |
| 20260502000029 | 76 | 108 | 0.0 | 3.0 | 0.00 | 0.00 | 0.00 | 53 | 1014.0 |
| 20260501235517 | 76 | 282 | 0.0 | 3.0 | 0.00 | 0.00 | 0.00 | 52 | 1013.9 |
| 20260501235014 | 77 | 48 | 1.0 | 3.0 | 0.00 | 0.00 | 0.00 | 52 | 1014.1 |
| 20260501234531 | 77 | 290 | 0.0 | 4.0 | 0.00 | 0.00 | 0.00 | 51 | 1014.0 |
| 20260501234015 | 77 | 173 | 1.0 | 4.0 | 0.00 | 0.00 | 0.00 | 50 | 1014.0 |
| 20260501233514 | 78 | 309 | 1.0 | 4.0 | 0.00 | 0.00 | 0.00 | 52 | 1014.0 |
| 20260501233032 | 78 | 322 | 1.0 | 4.0 | 0.00 | 0.00 | 0.00 | 51 | 1014.0 |
| 20260501232515 | 78 | 352 | 1.0 | 4.0 | 0.00 | 0.00 | 0.00 | 50 | 1014.0 |
| 20260501232015 | 78 | 294 | 1.0 | 4.0 | 0.00 | 0.00 | 0.00 | 53 | 1014.1 |
| 20260501231533 | 78 | 286 | 1.0 | 4.0 | 0.00 | 0.00 | 0.00 | 50 | 1014.1 |
| 20260501231017 | 78 | 336 | 1.0 | 3.0 | 0.00 | 0.00 | 0.00 | 53 | 1014.1 |
| 20260501230512 | 78 | 250 | 1.0 | 3.0 | 0.00 | 0.00 | 0.00 | 51 | 1014.2 |
| 20260501230030 | 77 | 244 | 0.0 | 4.0 | 0.00 | 0.00 | 0.00 | 51 | 1014.2 |
| 20260501225520 | 77 | 271 | 2.0 | 4.0 | 0.00 | 0.00 | 0.00 | 51 | 1014.3 |
| 20260501225013 | 77 | 242 | 1.0 | 4.0 | 0.00 | 0.00 | 0.00 | 52 | 1014.3 |
| 20260501224534 | 77 | 302 | 2.0 | 4.0 | 0.00 | 0.00 | 0.00 | 52 | 1014.4 |
| 20260501224018 | 77 | 330 | 1.0 | 4.0 | 0.00 | 0.00 | 0.00 | 53 | 1014.4 |
| 20260501223514 | 76 | 333 | 1.0 | 3.0 | 0.00 | 0.00 | 0.00 | 54 | 1014.4 |
| 20260501223034 | 76 | 182 | 1.0 | 3.0 | 0.00 | 0.00 | 0.00 | 50 | 1014.4 |
| 20260501222514 | 76 | 315 | 1.0 | 4.0 | 0.00 | 0.00 | 0.00 | 51 | 1014.5 |
| 20260501222014 | 76 | 251 | 1.0 | 4.0 | 0.00 | 0.00 | 0.00 | 51 | 1014.7 |
| 20260501221535 | 76 | 247 | 0.0 | 4.0 | 0.00 | 0.00 | 0.00 | 54 | 1014.7 |
| 20260501221018 | 76 | 294 | 1.0 | 4.0 | 0.00 | 0.00 | 0.00 | 52 | 1014.7 |
| 20260501220517 | 76 | 251 | 1.0 | 4.0 | 0.00 | 0.00 | 0.00 | 52 | 1014.7 |
| 20260501220031 | 76 | 217 | 0.0 | 2.0 | 0.00 | 0.00 | 0.00 | 55 | 1014.8 |
| 20260501215514 | 75 | 331 | 1.0 | 4.0 | 0.00 | 0.00 | 0.00 | 54 | 1014.9 |
| 20260501215017 | 75 | 300 | 1.0 | 4.0 | 0.00 | 0.00 | 0.00 | 54 | 1014.9 |
| 20260501214530 | 75 | 332 | 0.0 | 4.0 | 0.00 | 0.00 | 0.00 | 55 | 1014.9 |
| 20260501214013 | 75 | 61 | 0.0 | 4.0 | 0.00 | 0.00 | 0.00 | 55 | 1014.9 |
| 20260501213513 | 75 | 352 | 2.0 | 3.0 | 0.00 | 0.00 | 0.00 | 52 | 1015.0 |
| 20260501213029 | 75 | 352 | 0.0 | 3.0 | 0.00 | 0.00 | 0.00 | 54 | 1015.0 |
| 20260501212510 | 75 | 201 | 0.0 | 3.0 | 0.00 | 0.00 | 0.00 | 53 | 1015.1 |
| 20260501212013 | 75 | 10 | 0.0 | 3.0 | 0.00 | 0.00 | 0.00 | 51 | 1015.3 |
| 20260501211530 | 75 | 338 | 0.0 | 3.0 | 0.00 | 0.00 | 0.00 | 54 | 1015.3 |
| 20260501211014 | 75 | 300 | 0.0 | 3.0 | 0.00 | 0.00 | 0.00 | 52 | 1015.5 |
| 20260501210512 | 75 | 72 | 1.0 | 3.0 | 0.00 | 0.00 | 0.00 | 54 | 1015.5 |
| 20260501210031 | 75 | 307 | 0.0 | 2.0 | 0.00 | 0.00 | 0.00 | 53 | 1015.6 |
| 20260501205517 | 74 | 0 | 1.0 | 2.0 | 0.00 | 0.00 | 0.00 | 52 | 1015.5 |
| 20260501205013 | 73 | 0 | 0.0 | 2.0 | 0.00 | 0.00 | 0.00 | 56 | 1015.6 |
| 20260501204535 | 73 | 0 | 0.0 | 2.0 | 0.00 | 0.00 | 0.00 | 55 | 1015.6 |
| 20260501204014 | 72 | 57 | 0.0 | 2.0 | 0.00 | 0.00 | 0.00 | 56 | 1015.7 |
| 20260501203513 | 72 | 80 | 1.0 | 2.0 | 0.00 | 0.00 | 0.00 | 56 | 1015.7 |
| 20260501203049 | 72 | 0 | 1.0 | 2.0 | 0.00 | 0.00 | 0.00 | 57 | 1015.7 |
| 20260501202514 | 72 | 0 | 0.0 | 2.0 | 0.00 | 0.00 | 0.00 | 56 | 1015.7 |
| 20260501202016 | 72 | 148 | 0.0 | 2.0 | 0.00 | 0.00 | 0.00 | 56 | 1015.7 |
| 20260501201530 | 72 | 0 | 0.0 | 4.0 | 0.00 | 0.00 | 0.00 | 56 | 1015.8 |
| 20260501201014 | 72 | 0 | 0.0 | 4.0 | 0.00 | 0.00 | 0.00 | 56 | 1015.8 |
| 20260501200521 | 72 | 346 | 1.0 | 4.0 | 0.00 | 0.00 | 0.00 | 55 | 1015.8 |
| 20260501200034 | 71 | 323 | 0.0 | 3.0 | 0.00 | 0.00 | 0.00 | 57 | 1015.7 |
| 20260501195512 | 71 | 242 | 0.0 | 3.0 | 0.00 | 0.00 | 0.00 | 57 | 1015.8 |
| 20260501195016 | 71 | 297 | 1.0 | 2.0 | 0.00 | 0.00 | 0.00 | 58 | 1015.8 |
| 20260501194532 | 70 | 273 | 1.0 | 3.0 | 0.00 | 0.00 | 0.00 | 58 | 1015.9 |
| 20260501194013 | 70 | 342 | 1.0 | 3.0 | 0.00 | 0.00 | 0.00 | 59 | 1015.9 |
| 20260501193512 | 70 | 48 | 0.0 | 3.0 | 0.00 | 0.00 | 0.00 | 58 | 1015.9 |
| 20260501193032 | 70 | 0 | 0.0 | 3.0 | 0.00 | 0.00 | 0.00 | 60 | 1015.9 |
| 20260501192520 | 69 | 336 | 0.0 | 3.0 | 0.00 | 0.00 | 0.00 | 58 | 1016.1 |
| 20260501192015 | 69 | 108 | 1.0 | 3.0 | 0.00 | 0.00 | 0.00 | 58 | 1016.1 |
| 20260501191531 | 68 | 325 | 1.0 | 3.0 | 0.00 | 0.00 | 0.00 | 58 | 1016.1 |
| 20260501191016 | 68 | 0 | 0.0 | 3.0 | 0.00 | 0.00 | 0.00 | 60 | 1016.2 |
| 20260501190515 | 68 | 309 | 1.0 | 3.0 | 0.00 | 0.00 | 0.00 | 59 | 1016.3 |
| 20260501190036 | 68 | 322 | 1.0 | 3.0 | 0.00 | 0.00 | 0.00 | 61 | 1016.3 |
| 20260501185512 | 68 | 168 | 1.0 | 3.0 | 0.00 | 0.00 | 0.00 | 60 | 1016.3 |
| 20260501185013 | 68 | 319 | 1.0 | 3.0 | 0.00 | 0.00 | 0.00 | 61 | 1016.3 |
| 20260501184551 | 68 | 248 | 0.0 | 5.0 | 0.00 | 0.00 | 0.00 | 61 | 1016.3 |
| 20260501184015 | 67 | 165 | 0.0 | 5.0 | 0.00 | 0.00 | 0.00 | 62 | 1016.4 |
| 20260501183517 | 67 | 179 | 1.0 | 5.0 | 0.00 | 0.00 | 0.00 | 62 | 1016.3 |
| 20260501183036 | 67 | 277 | 0.0 | 2.0 | 0.00 | 0.00 | 0.00 | 65 | 1016.3 |